Time;durP1;ratioP1;P1;durP2;ratioP2;P2;SDS_P1;SDS_P2;PMS_P1;PMS_P2;Temp;Humidity;BMP_temperature;BMP_pressure;BME280_temperature;BME280_humidity;BME280_pressure;Samples;Min_cycle;Max_cycle;Signal;HPM_P1;HPM_P2
2023/01/19 00:01:13;;;;;;;0.40;0.40;;;;;;;12.81;100.00;98519.09;5071343;28;20227;-66
2023/01/19 00:03:42;;;;;;;0.50;0.50;;;;;;;12.85;100.00;98532.63;5071158;28;20196;-65
2023/01/19 00:06:09;;;;;;;0.40;0.40;;;;;;;12.81;100.00;98533.69;5071267;28;20199;-66
2023/01/19 00:08:36;;;;;;;0.70;0.70;;;;;;;12.86;100.00;98531.75;5070547;28;20207;-65
2023/01/19 00:11:03;;;;;;;0.50;0.50;;;;;;;12.82;100.00;98535.38;5071230;28;20584;-66
2023/01/19 00:13:30;;;;;;;0.50;0.50;;;;;;;13.46;90.08;98528.44;5070749;28;20273;-66
2023/01/19 00:15:57;;;;;;;22.27;1.83;;;;;;;14.12;83.57;98546.94;5070882;28;20203;-66
2023/01/19 00:18:24;;;;;;;0.50;0.50;;;;;;;14.55;81.67;98558.19;5070586;28;20203;-66
2023/01/19 00:20:52;;;;;;;0.60;0.60;;;;;;;14.48;87.55;98559.44;5070055;28;20224;-65
2023/01/19 00:23:20;;;;;;;0.43;0.43;;;;;;;14.38;86.26;98560.09;5071088;28;20196;-66
2023/01/19 00:25:48;;;;;;;0.30;0.30;;;;;;;14.71;79.89;98552.91;5070833;28;20203;-65
2023/01/19 00:28:16;;;;;;;0.37;0.37;;;;;;;14.95;77.49;98535.97;5070478;28;20680;-65
2023/01/19 00:30:44;;;;;;;0.50;0.50;;;;;;;15.36;75.58;98555.78;5069747;28;20781;-65
2023/01/19 00:33:13;;;;;;;0.50;0.50;;;;;;;15.37;75.44;98541.94;5070086;28;20200;-65
2023/01/19 00:35:41;;;;;;;0.40;0.40;;;;;;;15.51;75.43;98571.16;5070293;28;20196;-66
2023/01/19 00:38:10;;;;;;;0.40;0.40;;;;;;;15.77;73.10;98550.63;5070281;28;20196;-65
2023/01/19 00:40:36;;;;;;;0.50;0.50;;;;;;;15.92;72.29;98554.78;5070499;28;20211;-66
2023/01/19 00:43:04;;;;;;;0.53;0.53;;;;;;;15.72;72.50;98520.72;5070356;28;20257;-66
2023/01/19 00:45:31;;;;;;;0.40;0.40;;;;;;;15.96;71.94;98564.00;5070632;28;20637;-65
2023/01/19 00:47:58;;;;;;;0.50;0.50;;;;;;;15.88;71.92;98548.97;5070212;28;20199;-66
2023/01/19 00:50:26;;;;;;;0.50;0.50;;;;;;;16.06;71.27;98565.03;5070548;28;20666;-66
2023/01/19 00:52:54;;;;;;;0.53;0.53;;;;;;;16.20;69.99;98567.53;5070287;28;20328;-65
2023/01/19 00:55:22;;;;;;;0.40;0.40;;;;;;;16.22;69.37;98558.75;5070139;28;20668;-66
2023/01/19 00:57:49;;;;;;;0.43;0.43;;;;;;;16.33;69.24;98586.50;5070424;28;20199;-65
2023/01/19 01:00:18;;;;;;;0.50;0.50;;;;;;;16.52;67.11;98570.56;5070132;28;20215;-66
2023/01/19 01:02:45;;;;;;;0.50;0.50;;;;;;;16.51;67.54;98556.78;5069636;28;20676;-66
2023/01/19 01:05:15;;;;;;;0.50;0.50;;;;;;;16.54;68.10;98566.13;5070001;28;20211;-66
2023/01/19 01:07:43;;;;;;;0.43;0.43;;;;;;;16.61;67.32;98547.50;5070637;28;20671;-65
2023/01/19 01:10:12;;;;;;;0.50;0.50;;;;;;;16.61;67.51;98555.28;5069337;28;20204;-66
2023/01/19 01:12:41;;;;;;;0.40;0.40;;;;;;;16.60;66.76;98551.06;5069587;28;20207;-66
2023/01/19 01:15:10;;;;;;;0.60;0.60;;;;;;;16.69;66.66;98550.41;5070178;28;20200;-65
2023/01/19 01:17:46;;;;;;;0.50;0.50;;;;;;;16.66;67.73;98553.22;5070467;28;20207;-65
2023/01/19 01:20:16;;;;;;;2.27;2.07;;;;;;;16.58;67.99;98539.97;5069637;28;20580;-65
2023/01/19 01:22:45;;;;;;;0.50;0.50;;;;;;;16.53;68.26;98562.72;5070143;28;20192;-66
2023/01/19 01:25:12;;;;;;;0.60;0.60;;;;;;;16.51;68.48;98553.41;5070315;28;20200;-65
2023/01/19 01:27:41;;;;;;;0.93;0.93;;;;;;;16.40;68.61;98550.69;5070240;28;20302;-66
2023/01/19 01:30:09;;;;;;;1.10;1.10;;;;;;;16.44;68.87;98549.56;5069577;28;20220;-65
2023/01/19 01:32:36;;;;;;;0.50;0.50;;;;;;;16.52;68.32;98558.47;5070188;28;20745;-66
2023/01/19 01:35:04;;;;;;;0.57;0.57;;;;;;;16.46;68.75;98550.28;5070252;28;20664;-65
2023/01/19 01:37:31;;;;;;;1.37;1.37;;;;;;;16.49;68.18;98556.09;5069999;28;20238;-65
2023/01/19 01:39:57;;;;;;;0.50;0.50;;;;;;;16.50;68.40;98562.91;5069934;28;20203;-65
2023/01/19 01:42:27;;;;;;;0.50;0.50;;;;;;;16.45;68.30;98559.78;5069635;28;20234;-65
2023/01/19 01:44:57;;;;;;;0.40;0.40;;;;;;;16.37;70.17;98564.69;5069945;28;20226;-65
2023/01/19 01:47:30;;;;;;;0.50;0.50;;;;;;;16.18;70.27;98546.13;5070070;28;20726;-66
2023/01/19 01:50:04;;;;;;;0.40;0.40;;;;;;;16.36;68.57;98575.09;5067172;28;20200;-65
2023/01/19 01:52:33;;;;;;;1.03;1.03;;;;;;;16.25;69.80;98568.09;5069664;28;20199;-65
2023/01/19 01:55:02;;;;;;;0.60;0.60;;;;;;;16.23;69.35;98560.41;5070315;28;20203;-65
2023/01/19 01:57:30;;;;;;;0.40;0.40;;;;;;;16.22;70.04;98570.84;5069206;28;20200;-65
2023/01/19 01:59:58;;;;;;;0.50;0.50;;;;;;;16.06;70.39;98547.75;5069791;28;20238;-66
2023/01/19 02:05:18;;;;;;;0.60;0.60;;;;;;;16.25;68.71;98568.09;5070063;28;20211;-65
2023/01/19 02:13:21;;;;;;;0.50;0.50;;;;;;;16.57;66.70;98584.91;5069353;28;20292;-65
2023/01/19 02:15:51;;;;;;;0.50;0.50;;;;;;;16.59;67.28;98583.03;5072190;28;20215;-65
2023/01/19 02:18:18;;;;;;;0.40;0.40;;;;;;;16.65;66.23;98590.38;5073406;28;20206;-65
2023/01/19 02:20:53;;;;;;;0.40;0.40;;;;;;;16.66;66.07;98566.16;5072481;28;20196;-66
2023/01/19 02:23:31;;;;;;;0.60;0.60;;;;;;;16.68;66.15;98577.22;5073552;28;20224;-65
2023/01/19 02:25:59;;;;;;;0.50;0.50;;;;;;;16.65;66.65;98556.72;5072802;28;20219;-66
2023/01/19 02:28:28;;;;;;;0.53;0.53;;;;;;;16.59;66.71;98561.50;5073264;28;20203;-65
2023/01/19 02:30:54;;;;;;;0.40;0.40;;;;;;;16.59;67.23;98566.66;5072362;28;20228;-65
2023/01/19 02:33:21;;;;;;;0.50;0.50;;;;;;;16.64;66.08;98574.97;5073132;28;20671;-66
2023/01/19 02:35:51;;;;;;;0.70;0.70;;;;;;;16.63;66.32;98558.59;5073215;28;20211;-66
2023/01/19 02:38:19;;;;;;;0.40;0.40;;;;;;;16.73;65.56;98548.44;5073174;28;20200;-65
2023/01/19 02:40:49;;;;;;;0.50;0.50;;;;;;;16.74;66.28;98566.44;5072329;28;20211;-65
2023/01/19 02:43:19;;;;;;;0.50;0.50;;;;;;;16.57;66.94;98551.25;5072516;28;20195;-66
2023/01/19 02:45:47;;;;;;;0.60;0.60;;;;;;;16.52;67.63;98558.47;5071965;28;20204;-66
2023/01/19 02:48:14;;;;;;;0.50;0.50;;;;;;;16.36;67.47;98547.50;5072929;28;20218;-66
2023/01/19 02:50:48;;;;;;;0.50;0.50;;;;;;;16.40;68.08;98567.06;5069871;28;20205;-66
2023/01/19 02:53:42;;;;;;;0.40;0.40;;;;;;;16.30;68.54;98573.75;5071681;28;20265;-65
2023/01/19 02:56:38;;;;;;;0.40;0.40;;;;;;;16.23;69.09;98580.28;5072418;28;20204;-66
2023/01/19 02:59:14;;;;;;;0.60;0.60;;;;;;;16.14;69.89;98580.88;5071817;28;20572;-66
2023/01/19 03:01:56;;;;;;;0.43;0.43;;;;;;;16.01;70.37;98580.03;5070968;28;20223;-66
2023/01/19 03:04:30;;;;;;;0.50;0.50;;;;;;;15.99;70.12;98597.41;5072427;28;20576;-66
2023/01/19 03:07:03;;;;;;;0.43;0.43;;;;;;;15.64;78.86;98592.72;5072516;28;20195;-66
2023/01/19 03:09:36;;;;;;;0.43;0.43;;;;;;;15.43;80.30;98572.56;5072055;28;20201;-66
2023/01/19 03:12:11;;;;;;;0.57;0.57;;;;;;;15.49;80.83;98604.03;5072264;28;20279;-64
2023/01/19 03:14:46;;;;;;;0.40;0.40;;;;;;;14.92;83.52;98597.25;5071737;28;20198;-64
2023/01/19 03:17:17;;;;;;;0.40;0.40;;;;;;;14.16;87.83;98581.09;5072077;28;20194;-64
2023/01/19 03:19:48;;;;;;;0.50;0.50;;;;;;;14.25;87.52;98606.34;5072085;28;20196;-63
2023/01/19 03:22:19;;;;;;;0.53;0.53;;;;;;;13.61;93.95;98604.81;5071695;28;20237;-63
2023/01/19 03:24:47;;;;;;;0.40;0.40;;;;;;;13.43;95.18;98585.25;5072174;28;20203;-63
2023/01/19 03:27:20;;;;;;;0.60;0.60;;;;;;;13.56;95.01;98601.69;5071055;28;20208;-64
2023/01/19 03:29:52;;;;;;;0.50;0.50;;;;;;;13.42;95.81;98581.00;5071129;28;20224;-63
2023/01/19 03:32:28;;;;;;;0.40;0.40;;;;;;;13.35;96.97;98597.69;5071685;28;20580;-63
2023/01/19 03:34:59;;;;;;;0.50;0.50;;;;;;;13.42;96.19;98583.56;5070769;28;20271;-64
2023/01/19 03:37:28;;;;;;;0.47;0.47;;;;;;;13.17;98.48;98592.69;5071682;28;20584;-63
2023/01/19 03:39:55;;;;;;;3.90;1.53;;;;;;;13.07;99.96;98623.19;5071533;28;20196;-64
2023/01/19 03:42:25;;;;;;;0.60;0.60;;;;;;;12.81;100.00;98603.16;5071426;28;20222;-63
2023/01/19 03:44:54;;;;;;;0.30;0.30;;;;;;;13.22;93.16;98586.38;5070479;28;20199;-63
2023/01/19 03:47:22;;;;;;;0.50;0.50;;;;;;;13.38;90.84;98581.22;5071233;28;20235;-63
2023/01/19 03:49:50;;;;;;;0.40;0.40;;;;;;;13.50;90.29;98578.84;5071145;28;20729;-63
2023/01/19 03:52:17;;;;;;;0.50;0.50;;;;;;;13.54;90.06;98580.31;5071648;28;20207;-63
2023/01/19 03:54:44;;;;;;;0.50;0.50;;;;;;;13.62;90.13;98580.72;5071280;28;20195;-64
2023/01/19 03:57:11;;;;;;;0.30;0.30;;;;;;;13.67;90.12;98583.88;5071274;28;20199;-64
2023/01/19 03:59:39;;;;;;;0.50;0.50;;;;;;;13.67;90.38;98583.88;5070742;28;20202;-64
2023/01/19 04:02:06;;;;;;;0.50;0.50;;;;;;;13.75;86.62;98586.03;5070729;28;20212;-63
2023/01/19 04:04:33;;;;;;;0.40;0.40;;;;;;;14.17;79.26;98587.94;5071486;28;20196;-63
2023/01/19 04:07:00;;;;;;;0.50;0.50;;;;;;;14.84;76.10;98583.97;5066375;28;20204;-64
2023/01/19 04:09:27;;;;;;;0.40;0.40;;;;;;;15.17;73.71;98581.94;5069917;28;20209;-64
2023/01/19 04:11:54;;;;;;;0.60;0.60;;;;;;;15.37;73.00;98581.53;5070621;28;20652;-64
2023/01/19 04:14:21;;;;;;;0.60;0.60;;;;;;;15.40;72.74;98589.06;5070502;28;20198;-64
2023/01/19 04:16:50;;;;;;;0.57;0.57;;;;;;;15.35;76.81;98598.84;5070111;28;20200;-64
2023/01/19 04:19:16;;;;;;;0.50;0.50;;;;;;;15.14;79.74;98607.94;5070603;28;20235;-63
2023/01/19 04:21:43;;;;;;;0.50;0.50;;;;;;;14.70;81.43;98597.72;5070908;28;20214;-63
2023/01/19 04:24:10;;;;;;;1.03;0.90;;;;;;;14.53;82.48;98611.59;5070708;28;20285;-64
2023/01/19 04:26:37;;;;;;;0.40;0.40;;;;;;;14.40;83.22;98617.56;5070943;28;20205;-66
2023/01/19 04:29:04;;;;;;;0.50;0.50;;;;;;;13.97;86.48;98591.63;5070165;28;20201;-66
2023/01/19 04:31:31;;;;;;;1.80;1.70;;;;;;;13.83;88.39;98609.59;5071318;28;20200;-65
2023/01/19 04:33:59;;;;;;;0.50;0.50;;;;;;;13.51;90.56;98616.53;5069572;28;20294;-65
2023/01/19 04:36:27;;;;;;;0.63;0.63;;;;;;;13.45;91.23;98629.75;5069647;28;20249;-66
2023/01/19 04:38:54;;;;;;;0.50;0.50;;;;;;;13.36;92.35;98613.97;5070052;28;20757;-66
2023/01/19 04:41:20;;;;;;;0.57;0.57;;;;;;;13.01;94.54;98588.34;5070622;28;20633;-65
2023/01/19 04:43:47;;;;;;;0.50;0.50;;;;;;;12.88;96.46;98601.91;5070771;28;20200;-66
2023/01/19 04:46:14;;;;;;;0.43;0.43;;;;;;;12.41;99.54;98587.19;5070385;28;20285;-66
2023/01/19 04:48:41;;;;;;;0.57;0.57;;;;;;;12.55;99.52;98620.75;5066364;28;20241;-66
2023/01/19 04:51:09;;;;;;;0.60;0.60;;;;;;;12.45;100.00;98616.97;5070183;28;20294;-65
2023/01/19 04:53:36;;;;;;;0.47;0.47;;;;;;;12.14;100.00;98591.13;5070739;28;20196;-66
2023/01/19 04:56:03;;;;;;;0.40;0.40;;;;;;;11.98;100.00;98610.78;5070324;28;20206;-66
2023/01/19 04:58:29;;;;;;;0.40;0.40;;;;;;;11.81;100.00;98600.47;5070123;28;20204;-66
2023/01/19 05:00:56;;;;;;;0.40;0.40;;;;;;;11.65;100.00;98600.34;5070156;28;20203;-66
2023/01/19 05:03:23;;;;;;;0.40;0.40;;;;;;;11.46;100.00;98594.41;5070087;28;20281;-65
2023/01/19 05:05:50;;;;;;;0.43;0.43;;;;;;;11.40;100.00;98626.31;5070665;28;20208;-66
2023/01/19 05:08:18;;;;;;;0.50;0.50;;;;;;;11.29;100.00;98620.84;5069879;28;20196;-66
2023/01/19 05:10:44;;;;;;;0.50;0.50;;;;;;;11.28;100.00;98611.47;5070128;28;20580;-65
2023/01/19 05:13:12;;;;;;;0.63;0.63;;;;;;;11.27;100.00;98622.66;5070313;28;20196;-66
2023/01/19 05:15:39;;;;;;;0.40;0.40;;;;;;;11.39;100.00;98645.19;5070564;28;20208;-66
2023/01/19 05:18:06;;;;;;;0.43;0.43;;;;;;;11.37;100.00;98625.63;5070347;28;20195;-66
2023/01/19 05:20:33;;;;;;;0.50;0.50;;;;;;;11.22;100.00;98610.91;5069709;28;20203;-66
2023/01/19 05:23:00;;;;;;;0.50;0.50;;;;;;;11.23;100.00;98644.19;5070057;28;20254;-66
2023/01/19 05:25:28;;;;;;;0.40;0.40;;;;;;;11.34;100.00;98665.06;5070111;28;20676;-66
2023/01/19 05:27:55;;;;;;;0.40;0.40;;;;;;;11.31;100.00;98626.72;5070375;28;20266;-66
2023/01/19 05:30:21;;;;;;;0.50;0.50;;;;;;;11.30;100.00;98650.72;5069708;28;20254;-65
2023/01/19 05:32:48;;;;;;;0.70;0.70;;;;;;;11.34;100.00;98670.19;5069978;28;20199;-66
2023/01/19 05:35:15;;;;;;;0.40;0.40;;;;;;;11.32;100.00;98648.91;5070393;28;20576;-66
2023/01/19 05:37:43;;;;;;;0.50;0.50;;;;;;;11.26;100.00;98644.06;5069059;28;20192;-66
2023/01/19 05:40:10;;;;;;;0.50;0.50;;;;;;;11.32;100.00;98655.78;5070175;28;20563;-65
2023/01/19 05:42:38;;;;;;;3.13;0.83;;;;;;;11.39;100.00;98659.75;5068276;28;20273;-65
2023/01/19 05:45:06;;;;;;;0.50;0.50;;;;;;;11.52;100.00;98676.25;5070174;28;20203;-63
2023/01/19 05:47:33;;;;;;;0.50;0.50;;;;;;;11.46;100.00;98667.09;5063186;28;20215;-62
2023/01/19 05:50:00;;;;;;;0.67;0.67;;;;;;;11.32;100.00;98664.31;5060971;28;20585;-62
2023/01/19 05:52:27;;;;;;;0.60;0.60;;;;;;;11.35;100.00;98678.72;5065982;28;20204;-63
2023/01/19 05:54:54;;;;;;;0.50;0.50;;;;;;;11.35;100.00;98679.56;5067915;28;20196;-63
2023/01/19 05:57:21;;;;;;;0.60;0.60;;;;;;;11.36;100.00;98681.25;5070700;28;20303;-63
2023/01/19 05:59:49;;;;;;;0.40;0.40;;;;;;;11.45;100.00;98695.38;5072192;28;20257;-63
2023/01/19 06:02:16;;;;;;;0.70;0.70;;;;;;;11.51;100.00;98677.97;5073130;28;20223;-63
2023/01/19 06:04:43;;;;;;;0.60;0.60;;;;;;;11.55;100.00;98682.06;5073201;28;20583;-63
2023/01/19 06:07:10;;;;;;;0.90;0.90;;;;;;;11.46;100.00;98679.94;5071584;28;20283;-63
2023/01/19 06:09:36;;;;;;;0.50;0.50;;;;;;;11.53;100.00;98694.13;5066706;28;20211;-64
2023/01/19 06:12:03;;;;;;;0.60;0.60;;;;;;;11.66;100.00;98701.28;5068070;28;20196;-63
2023/01/19 06:14:31;;;;;;;0.50;0.50;;;;;;;11.83;100.00;98683.38;5073323;28;20249;-63
2023/01/19 06:16:59;;;;;;;0.50;0.50;;;;;;;11.98;100.00;98680.97;5072772;28;20262;-63
2023/01/19 06:19:26;;;;;;;0.40;0.40;;;;;;;12.00;100.00;98699.69;5073465;28;20200;-63
2023/01/19 06:21:56;;;;;;;0.40;0.40;;;;;;;11.97;100.00;98679.28;5072680;28;20208;-63
2023/01/19 06:24:24;;;;;;;0.60;0.60;;;;;;;11.92;100.00;98695.81;5071854;28;20192;-63
2023/01/19 06:26:50;;;;;;;1.00;0.80;;;;;;;11.86;100.00;98675.53;5072974;28;20664;-63
2023/01/19 06:29:17;;;;;;;0.50;0.50;;;;;;;11.86;100.00;98660.97;5072880;28;20223;-63
2023/01/19 06:31:44;;;;;;;0.40;0.40;;;;;;;11.88;100.00;98702.00;5072980;28;20628;-63
2023/01/19 06:34:12;;;;;;;0.40;0.40;;;;;;;11.92;100.00;98711.22;5072461;28;20265;-63
2023/01/19 06:36:39;;;;;;;1.60;1.60;;;;;;;11.90;100.00;98713.03;5073165;28;20263;-62
2023/01/19 06:39:06;;;;;;;0.40;0.40;;;;;;;11.98;100.00;98680.13;5071183;28;20196;-63
2023/01/19 06:41:33;;;;;;;0.40;0.40;;;;;;;12.10;100.00;98682.09;5072679;28;20692;-64
2023/01/19 06:44:00;;;;;;;0.40;0.40;;;;;;;12.08;100.00;98686.50;5071810;28;20261;-63
2023/01/19 06:46:27;;;;;;;0.50;0.50;;;;;;;12.01;100.00;98690.25;5072132;28;20200;-63
2023/01/19 06:48:54;;;;;;;0.97;0.97;;;;;;;12.19;100.00;98698.81;5070015;28;20200;-62
2023/01/19 06:51:24;;;;;;;0.50;0.50;;;;;;;12.02;100.00;98684.19;5070299;28;20253;-62
2023/01/19 06:53:51;;;;;;;0.50;0.50;;;;;;;12.27;100.00;98705.25;5070370;28;20212;-63
2023/01/19 06:56:17;;;;;;;0.43;0.43;;;;;;;12.33;100.00;98704.97;5069578;28;20203;-62
2023/01/19 06:58:46;;;;;;;0.50;0.50;;;;;;;12.33;100.00;98710.09;5068890;28;20211;-62
2023/01/19 07:01:13;;;;;;;0.50;0.50;;;;;;;12.47;100.00;98699.16;5067577;28;20203;-63
2023/01/19 07:03:39;;;;;;;0.40;0.40;;;;;;;12.52;100.00;98708.31;5070169;28;20695;-62
2023/01/19 07:06:07;;;;;;;0.50;0.50;;;;;;;12.55;100.00;98697.88;5070485;28;20209;-62
2023/01/19 07:08:36;;;;;;;0.40;0.40;;;;;;;12.63;97.98;98700.88;5068935;28;20218;-63
2023/01/19 07:11:05;;;;;;;0.50;0.50;;;;;;;12.69;96.26;98714.34;5068795;28;20572;-63
2023/01/19 07:13:32;;;;;;;0.70;0.70;;;;;;;12.73;97.62;98721.03;5065612;28;20290;-64
2023/01/19 07:15:59;;;;;;;0.40;0.40;;;;;;;12.82;97.69;98723.13;5068947;28;20207;-63
2023/01/19 07:18:26;;;;;;;0.50;0.50;;;;;;;12.88;97.64;98717.66;5067928;28;20671;-64
2023/01/19 07:20:53;;;;;;;0.40;0.40;;;;;;;12.89;98.84;98711.63;5068674;28;20244;-63
2023/01/19 07:23:19;;;;;;;0.40;0.40;;;;;;;12.95;99.49;98713.88;5070058;28;20295;-63
2023/01/19 07:25:47;;;;;;;0.50;0.50;;;;;;;12.99;100.00;98718.78;5069083;28;20262;-63
2023/01/19 07:28:15;;;;;;;0.40;0.40;;;;;;;13.05;100.00;98722.81;5069687;28;20208;-64
2023/01/19 07:30:42;;;;;;;0.50;0.50;;;;;;;13.08;100.00;98718.38;5068582;28;20251;-64
2023/01/19 07:33:09;;;;;;;0.40;0.40;;;;;;;13.15;100.00;98734.31;5071035;28;20640;-64
2023/01/19 07:35:36;;;;;;;0.50;0.50;;;;;;;13.21;100.00;98726.28;5069871;28;20203;-64
2023/01/19 07:38:03;;;;;;;0.40;0.40;;;;;;;13.22;100.00;98709.91;5067931;28;20207;-63
2023/01/19 07:40:30;;;;;;;0.50;0.50;;;;;;;13.38;100.00;98715.94;5065809;28;20327;-64
2023/01/19 07:42:58;;;;;;;0.40;0.40;;;;;;;13.45;100.00;98730.16;5069625;28;20269;-63
2023/01/19 07:45:26;;;;;;;0.50;0.50;;;;;;;13.55;100.00;98728.75;5069371;28;20204;-63
2023/01/19 07:47:52;;;;;;;0.40;0.40;;;;;;;13.70;99.47;98716.00;5070382;28;20200;-63
2023/01/19 07:50:23;;;;;;;0.50;0.50;;;;;;;13.78;99.13;98712.09;5069323;28;20223;-63
2023/01/19 07:52:52;;;;;;;0.50;0.50;;;;;;;13.76;99.34;98708.78;5066511;28;20314;-63
2023/01/19 07:55:19;;;;;;;4.13;2.80;;;;;;;13.81;99.64;98700.78;5069895;28;20219;-64
2023/01/19 07:57:49;;;;;;;0.47;0.47;;;;;;;13.91;99.72;98714.81;5069289;28;20208;-64
2023/01/19 08:00:20;;;;;;;0.43;0.43;;;;;;;13.95;100.00;98701.69;5068877;28;20200;-64
2023/01/19 08:02:48;;;;;;;0.70;0.70;;;;;;;14.11;100.00;98699.94;5069936;28;20577;-63
2023/01/19 08:05:16;;;;;;;0.60;0.60;;;;;;;14.25;98.96;98712.03;5071162;28;20204;-63
2023/01/19 08:07:44;;;;;;;1.73;1.63;;;;;;;14.37;98.14;98700.25;5070274;28;20579;-63
2023/01/19 08:10:11;;;;;;;1.03;1.03;;;;;;;14.37;97.79;98698.50;5069868;28;20204;-63
2023/01/19 08:12:39;;;;;;;1.00;1.00;;;;;;;14.60;97.25;98705.75;5068707;28;20204;-62
2023/01/19 08:15:07;;;;;;;0.60;0.60;;;;;;;14.61;97.68;98697.09;5069502;28;20203;-63
2023/01/19 08:17:35;;;;;;;0.50;0.50;;;;;;;14.71;96.93;98721.44;5070034;28;20642;-63
2023/01/19 08:20:02;;;;;;;0.53;0.53;;;;;;;14.82;96.89;98722.59;5069902;28;20208;-64
2023/01/19 08:22:29;;;;;;;0.40;0.40;;;;;;;14.99;96.16;98722.44;5069401;28;20633;-63
2023/01/19 08:24:56;;;;;;;0.50;0.50;;;;;;;15.01;95.99;98720.59;5070065;28;20595;-64
2023/01/19 08:27:22;;;;;;;0.57;0.57;;;;;;;15.10;95.49;98727.78;5070462;28;20255;-64
2023/01/19 08:29:49;;;;;;;0.50;0.50;;;;;;;15.16;95.29;98727.41;5070452;28;20241;-64
2023/01/19 08:32:16;;;;;;;0.47;0.47;;;;;;;15.21;96.11;98717.66;5071297;28;20192;-64
2023/01/19 08:34:44;;;;;;;0.50;0.50;;;;;;;15.30;95.11;98717.09;5070987;28;20339;-64
2023/01/19 08:37:11;;;;;;;0.50;0.50;;;;;;;15.45;95.13;98726.50;5071018;28;21688;-64
2023/01/19 08:39:38;;;;;;;0.50;0.50;;;;;;;15.55;94.98;98708.72;5067894;28;20252;-64
2023/01/19 08:42:05;;;;;;;0.53;0.53;;;;;;;15.59;92.47;98703.28;5063161;28;20724;-64
2023/01/19 08:44:31;;;;;;;0.40;0.40;;;;;;;15.62;92.65;98705.69;5062820;28;20225;-63
2023/01/19 08:46:59;;;;;;;0.70;0.70;;;;;;;15.43;92.46;98666.38;5065712;28;20553;-64
2023/01/19 08:49:26;;;;;;;0.77;0.77;;;;;;;15.80;92.91;98708.06;5065943;28;20196;-64
2023/01/19 08:51:54;;;;;;;0.43;0.43;;;;;;;15.88;92.97;98698.06;5063069;28;20565;-64
2023/01/19 08:54:22;;;;;;;0.50;0.50;;;;;;;15.98;92.62;98712.91;5064339;28;20214;-64
2023/01/19 08:56:48;;;;;;;0.40;0.40;;;;;;;16.09;90.59;98712.22;5063911;28;20207;-63
2023/01/19 08:59:15;;;;;;;0.50;0.50;;;;;;;16.01;90.65;98691.19;5067330;28;20203;-64
2023/01/19 09:01:43;;;;;;;0.40;0.40;;;;;;;16.19;89.91;98703.75;5070313;28;20200;-64
2023/01/19 09:04:10;;;;;;;0.60;0.60;;;;;;;16.33;88.83;98700.28;5070563;28;20216;-64
2023/01/19 09:06:36;;;;;;;1.17;1.17;;;;;;;16.42;89.42;98689.34;5070801;28;20203;-63
2023/01/19 09:09:05;;;;;;;0.60;0.60;;;;;;;16.58;87.93;98699.56;5070278;28;20219;-64
2023/01/19 09:11:31;;;;;;;0.60;0.60;;;;;;;16.63;87.36;98682.81;5070841;28;20206;-65
2023/01/19 09:13:58;;;;;;;0.60;0.60;;;;;;;16.72;88.32;98689.13;5070747;28;20249;-64
2023/01/19 09:16:27;;;;;;;0.50;0.50;;;;;;;16.80;85.88;98689.47;5070473;28;20196;-64
2023/01/19 09:18:54;;;;;;;0.40;0.40;;;;;;;16.82;85.03;98690.19;5070481;28;20192;-64
2023/01/19 09:21:21;;;;;;;0.40;0.40;;;;;;;17.02;83.54;98688.84;5070388;28;20203;-64
2023/01/19 09:23:48;;;;;;;0.57;0.57;;;;;;;17.06;82.41;98669.59;5070526;28;20249;-64
2023/01/19 09:26:16;;;;;;;0.40;0.40;;;;;;;17.15;82.73;98674.97;5074519;28;20214;-64
2023/01/19 09:28:43;;;;;;;0.40;0.40;;;;;;;17.28;82.93;98678.38;5074263;28;20195;-64
2023/01/19 09:31:10;;;;;;;0.50;0.50;;;;;;;17.43;81.53;98673.88;5069226;28;20236;-63
2023/01/19 09:33:37;;;;;;;0.50;0.50;;;;;;;17.46;81.32;98678.84;5070932;28;20202;-64
2023/01/19 09:36:04;;;;;;;0.70;0.70;;;;;;;17.60;81.72;98685.69;5068594;28;20206;-64
2023/01/19 09:38:31;;;;;;;0.50;0.50;;;;;;;17.66;80.31;98680.91;5071160;28;20208;-65
2023/01/19 09:40:59;;;;;;;0.40;0.40;;;;;;;17.76;77.67;98678.50;5070657;28;20208;-64
2023/01/19 09:43:39;;;;;;;0.50;0.50;;;;;;;17.86;78.33;98679.50;5072634;28;20242;-65
2023/01/19 09:46:14;;;;;;;0.50;0.50;;;;;;;18.02;78.28;98674.06;5072065;28;20211;-64
2023/01/19 09:48:46;;;;;;;0.97;0.97;;;;;;;18.05;75.62;98672.06;5069395;28;20282;-64
2023/01/19 09:51:18;;;;;;;0.40;0.40;;;;;;;17.99;75.16;98645.75;5070937;28;20270;-64
2023/01/19 09:54:09;;;;;;;0.77;0.77;;;;;;;18.24;74.86;98656.00;5070778;28;20204;-63
2023/01/19 09:56:36;;;;;;;0.40;0.40;;;;;;;18.34;71.30;98651.78;5071157;28;20219;-65
2023/01/19 09:59:19;;;;;;;1.27;1.17;;;;;;;18.49;71.01;98658.44;5071400;28;20196;-65
2023/01/19 10:02:07;;;;;;;0.40;0.40;;;;;;;18.61;67.75;98641.97;5072613;28;20683;-64
2023/01/19 10:04:38;;;;;;;0.80;0.80;;;;;;;18.77;62.51;98652.06;5072184;28;20306;-65
2023/01/19 10:07:13;;;;;;;0.47;0.47;;;;;;;18.90;63.41;98637.19;5073565;28;20204;-65
2023/01/19 10:10:03;;;;;;;0.30;0.30;;;;;;;19.13;63.83;98636.25;5072055;28;20194;-65
2023/01/19 10:12:41;;;;;;;0.37;0.37;;;;;;;19.41;60.82;98632.38;5072091;28;20205;-65
2023/01/19 10:15:19;;;;;;;0.60;0.60;;;;;;;19.69;56.23;98608.44;5067824;28;20210;-65
2023/01/19 10:17:55;;;;;;;0.40;0.40;;;;;;;20.01;52.85;98623.22;5071096;28;20198;-65
2023/01/19 10:20:27;;;;;;;0.33;0.33;;;;;;;20.20;53.46;98615.56;5071717;28;20213;-65
2023/01/19 10:22:56;;;;;;;0.37;0.37;;;;;;;20.23;52.88;98602.31;5070068;28;20208;-65
2023/01/19 10:25:23;;;;;;;0.80;0.80;;;;;;;20.45;53.07;98602.25;5071830;28;20319;-66
2023/01/19 10:27:51;;;;;;;0.40;0.40;;;;;;;20.49;52.38;98608.84;5072882;28;20212;-65
2023/01/19 10:30:23;;;;;;;0.40;0.40;;;;;;;20.58;53.44;98608.06;5071987;28;20304;-65
2023/01/19 10:32:51;;;;;;;0.40;0.40;;;;;;;20.65;52.72;98606.59;5072657;28;20238;-65
2023/01/19 10:35:23;;;;;;;0.40;0.40;;;;;;;20.77;52.84;98602.97;5070601;28;20576;-66
2023/01/19 10:37:50;;;;;;;0.30;0.30;;;;;;;20.87;49.36;98587.41;5067181;28;20259;-65
2023/01/19 10:40:27;;;;;;;0.40;0.40;;;;;;;20.78;49.71;98578.56;5062461;28;20619;-66
2023/01/19 10:42:56;;;;;;;0.60;0.60;;;;;;;20.94;49.46;98588.50;5067839;28;20266;-66
2023/01/19 10:45:28;;;;;;;0.30;0.30;;;;;;;21.02;47.21;98580.03;5070435;28;20222;-69
2023/01/19 10:47:56;;;;;;;0.50;0.50;;;;;;;21.07;47.41;98575.25;5070221;28;20276;-70
2023/01/19 10:50:27;;;;;;;0.40;0.40;;;;;;;21.14;46.05;98589.44;5061848;28;20681;-69
2023/01/19 10:52:57;;;;;;;1.23;1.23;;;;;;;21.12;46.29;98573.13;5067405;28;20225;-69
2023/01/19 10:55:26;;;;;;;0.30;0.30;;;;;;;21.21;44.01;98585.34;5065420;28;20638;-70
2023/01/19 10:57:53;;;;;;;0.30;0.30;;;;;;;21.24;44.73;98574.66;5068646;28;20649;-70
2023/01/19 11:00:33;;;;;;;0.50;0.50;;;;;;;21.28;46.02;98576.03;5070280;28;20212;-70
2023/01/19 11:03:00;;;;;;;0.50;0.50;;;;;;;21.29;42.74;98556.84;5068952;28;20214;-69
2023/01/19 11:05:30;;;;;;;0.30;0.30;;;;;;;21.34;42.53;98565.06;5068173;28;20228;-69
2023/01/19 11:07:57;;;;;;;0.40;0.40;;;;;;;21.36;43.91;98571.81;5060615;28;20200;-70
2023/01/19 11:10:25;;;;;;;0.40;0.40;;;;;;;21.41;43.83;98560.97;5062556;28;20670;-71
2023/01/19 11:13:06;;;;;;;0.40;0.40;;;;;;;21.44;42.57;98560.72;5068272;28;21391;-72
2023/01/19 11:15:40;;;;;;;0.60;0.60;;;;;;;21.41;42.61;98547.94;5068606;28;20684;-73
2023/01/19 11:18:08;;;;;;;0.40;0.40;;;;;;;21.32;41.06;98551.38;5069519;28;20215;-73
2023/01/19 11:20:47;;;;;;;0.40;0.40;;;;;;;21.31;41.26;98542.72;5069449;28;20638;-73
2023/01/19 11:23:25;;;;;;;0.50;0.50;;;;;;;21.26;42.10;98541.47;5069542;28;20218;-72
2023/01/19 11:25:53;;;;;;;0.30;0.30;;;;;;;21.30;41.17;98538.44;5069620;28;20213;-72
2023/01/19 11:28:25;;;;;;;0.50;0.50;;;;;;;21.36;41.07;98529.25;5068089;28;20206;-69
2023/01/19 11:30:57;;;;;;;0.23;0.23;;;;;;;21.40;41.50;98538.47;5069484;28;20437;-68
2023/01/19 11:33:26;;;;;;;0.30;0.30;;;;;;;21.42;40.98;98541.78;5070550;28;20203;-70
2023/01/19 11:36:03;;;;;;;0.30;0.30;;;;;;;21.37;41.46;98541.34;5070761;28;20219;-70
2023/01/19 11:38:30;;;;;;;0.60;0.60;;;;;;;21.34;40.92;98539.84;5069773;28;20203;-70
2023/01/19 11:40:58;;;;;;;0.70;0.70;;;;;;;21.38;41.49;98556.03;5071028;28;20209;-68
2023/01/19 11:43:28;;;;;;;0.30;0.30;;;;;;;21.38;41.88;98545.59;5061469;28;20219;-70
2023/01/19 11:45:58;;;;;;;0.40;0.40;;;;;;;21.55;40.30;98549.34;5059222;28;20772;-69
2023/01/19 11:48:32;;;;;;;0.40;0.40;;;;;;;21.49;41.32;98536.84;5066221;28;20198;-69